createdAt,value
2023-01-04T00:01:18.186Z,4.10
2023-01-04T00:03:44.933Z,4.12
2023-01-04T00:06:14.410Z,4.10
2023-01-04T00:08:41.931Z,4.08
2023-01-04T00:11:12.773Z,4.12
2023-01-04T00:13:39.678Z,4.14
2023-01-04T00:16:12.839Z,4.15
2023-01-04T00:18:40.180Z,4.21
2023-01-04T00:21:15.206Z,4.20
2023-01-04T00:23:44.343Z,4.18
2023-01-04T00:26:13.843Z,4.15
2023-01-04T00:28:40.771Z,4.14
2023-01-04T00:31:09.643Z,4.12
2023-01-04T00:33:36.354Z,4.15
2023-01-04T00:36:05.543Z,4.11
2023-01-04T00:38:33.233Z,4.13
2023-01-04T00:41:00.511Z,4.13
2023-01-04T00:43:27.215Z,4.17
2023-01-04T00:45:54.372Z,4.17
2023-01-04T00:48:21.871Z,4.16
2023-01-04T00:50:49.186Z,4.16
2023-01-04T00:53:17.213Z,4.21
2023-01-04T00:55:44.353Z,4.22
2023-01-04T00:58:11.461Z,4.19
2023-01-04T01:00:38.747Z,4.19
2023-01-04T01:03:06.173Z,4.25
2023-01-04T01:05:35.359Z,4.24
2023-01-04T01:08:24.590Z,4.23
2023-01-04T01:10:52.060Z,4.18
2023-01-04T01:13:19.338Z,4.18
2023-01-04T01:15:46.045Z,4.22
2023-01-04T01:18:12.991Z,4.22
2023-01-04T01:20:46.213Z,4.22
2023-01-04T01:23:15.990Z,4.19
2023-01-04T01:25:42.794Z,4.16
2023-01-04T01:28:09.510Z,4.15
2023-01-04T01:30:40.703Z,4.19
2023-01-04T01:33:08.141Z,4.22
2023-01-04T01:35:35.538Z,4.19
2023-01-04T01:38:02.686Z,4.19
2023-01-04T01:40:29.872Z,4.18
2023-01-04T01:42:56.471Z,4.20
2023-01-04T01:45:26.096Z,4.23
2023-01-04T01:47:56.036Z,4.23
2023-01-04T01:50:28.227Z,4.23
2023-01-04T01:52:57.890Z,4.23
2023-01-04T01:55:24.625Z,4.21
2023-01-04T01:57:54.425Z,4.22
2023-01-04T02:00:21.212Z,4.18
2023-01-04T02:02:51.686Z,4.21
2023-01-04T02:05:20.418Z,4.22
2023-01-04T02:07:49.625Z,4.23
2023-01-04T02:10:16.875Z,4.19
2023-01-04T02:12:45.370Z,4.21
2023-01-04T02:15:12.549Z,4.21
2023-01-04T02:17:48.922Z,4.17
2023-01-04T02:20:35.860Z,4.23
2023-01-04T02:23:20.961Z,4.24
2023-01-04T02:26:30.940Z,4.22
2023-01-04T02:29:19.548Z,4.21
2023-01-04T02:31:57.487Z,4.26
2023-01-04T02:34:26.780Z,4.22
2023-01-04T02:36:53.302Z,4.23
2023-01-04T02:39:23.072Z,4.20
2023-01-04T02:42:06.697Z,4.21
2023-01-04T02:44:53.858Z,4.22
2023-01-04T02:47:48.540Z,4.23
2023-01-04T02:50:31.732Z,4.24
2023-01-04T02:53:15.286Z,4.27
2023-01-04T02:56:06.053Z,4.28
2023-01-04T02:58:51.246Z,4.28
2023-01-04T03:01:42.357Z,4.25
2023-01-04T03:04:36.874Z,4.27
2023-01-04T03:07:13.235Z,4.30
2023-01-04T03:09:45.151Z,4.28
2023-01-04T03:12:34.109Z,4.25
2023-01-04T03:15:08.707Z,4.26
2023-01-04T03:17:49.413Z,4.26
2023-01-04T03:20:18.318Z,4.26
2023-01-04T03:23:09.163Z,4.26
2023-01-04T03:25:59.427Z,4.24
2023-01-04T03:28:49.246Z,4.27
2023-01-04T03:34:38.192Z,4.28
2023-01-04T03:37:15.891Z,4.29
2023-01-04T03:40:28.084Z,4.25
2023-01-04T03:43:36.162Z,4.21
2023-01-04T03:46:27.962Z,4.22
2023-01-04T03:49:03.236Z,4.23
2023-01-04T03:51:34.124Z,4.28
2023-01-04T03:54:14.356Z,4.23
2023-01-04T03:56:43.843Z,4.22
2023-01-04T03:59:12.158Z,4.23
2023-01-04T04:01:41.185Z,4.28
2023-01-04T04:04:26.548Z,4.28
2023-01-04T04:07:11.852Z,4.29
2023-01-04T04:09:38.442Z,4.32
2023-01-04T04:12:05.207Z,4.29
2023-01-04T04:14:31.839Z,4.22
2023-01-04T04:16:58.487Z,4.22
2023-01-04T04:19:25.111Z,4.23
2023-01-04T04:21:51.705Z,4.22
2023-01-04T04:24:21.576Z,4.26
2023-01-04T04:26:48.173Z,4.29
2023-01-04T04:29:14.768Z,4.34
2023-01-04T04:31:41.453Z,4.28
2023-01-04T04:34:09.773Z,4.30
2023-01-04T04:36:36.443Z,4.29
2023-01-04T04:39:03.534Z,4.30
2023-01-04T04:41:39.394Z,4.32
2023-01-04T04:44:08.195Z,4.27
2023-01-04T04:46:35.228Z,4.27
2023-01-04T04:49:02.669Z,4.30
2023-01-04T04:51:29.313Z,4.31
2023-01-04T04:53:55.975Z,4.33
2023-01-04T04:56:22.638Z,4.32
2023-01-04T04:58:49.807Z,4.31
2023-01-04T05:01:17.282Z,4.31
2023-01-04T05:03:44.030Z,4.32
2023-01-04T05:06:11.012Z,4.31
2023-01-04T05:08:37.696Z,4.33
2023-01-04T05:11:08.511Z,4.32
2023-01-04T05:13:35.452Z,4.29
2023-01-04T05:16:03.154Z,4.30
2023-01-04T05:18:29.879Z,4.31
2023-01-04T05:20:56.487Z,4.28
2023-01-04T05:23:23.399Z,4.30
2023-01-04T05:25:59.317Z,4.31
2023-01-04T05:28:26.566Z,4.34
2023-01-04T05:30:55.431Z,4.35
2023-01-04T05:33:30.382Z,4.34
2023-01-04T05:36:02.544Z,4.35
2023-01-04T05:38:29.738Z,4.33
2023-01-04T05:40:57.140Z,4.36
2023-01-04T05:43:24.490Z,4.35
2023-01-04T05:45:53.754Z,4.38
2023-01-04T05:48:21.519Z,4.39
2023-01-04T05:50:48.904Z,4.42
2023-01-04T05:53:18.207Z,4.42
2023-01-04T05:55:46.135Z,4.37
2023-01-04T05:58:12.814Z,4.36
2023-01-04T06:00:39.466Z,4.35
2023-01-04T06:03:06.306Z,4.33
2023-01-04T06:05:33.054Z,4.32
2023-01-04T06:07:59.627Z,4.28
2023-01-04T06:10:26.260Z,4.25
2023-01-04T06:12:52.835Z,4.20
2023-01-04T06:15:19.455Z,4.16
2023-01-04T06:17:46.060Z,4.10
2023-01-04T06:20:12.753Z,4.03
2023-01-04T06:22:40.745Z,3.97
2023-01-04T06:25:09.236Z,3.95
2023-01-04T06:27:36.126Z,3.95
2023-01-04T06:30:03.069Z,3.98
2023-01-04T06:32:29.689Z,3.99
2023-01-04T06:34:56.407Z,4.00
2023-01-04T06:37:23.248Z,4.08
2023-01-04T06:39:49.892Z,4.16
2023-01-04T06:42:34.773Z,4.15
2023-01-04T06:45:01.455Z,4.16
2023-01-04T06:47:28.161Z,4.18
2023-01-04T06:49:54.845Z,4.18
2023-01-04T06:52:21.493Z,4.18
2023-01-04T06:54:48.160Z,4.19
2023-01-04T06:57:14.851Z,4.18
2023-01-04T06:59:41.417Z,4.17
2023-01-04T07:02:08.213Z,4.20
2023-01-04T07:04:34.977Z,4.28
2023-01-04T07:07:02.370Z,4.24
2023-01-04T07:09:28.921Z,4.23
2023-01-04T07:11:55.498Z,4.20
2023-01-04T07:14:22.077Z,4.24
2023-01-04T07:16:48.818Z,4.31
2023-01-04T07:19:15.672Z,4.36
2023-01-04T07:21:42.532Z,4.42
2023-01-04T07:24:09.305Z,4.48
2023-01-04T07:26:35.899Z,4.56
2023-01-04T07:29:14.787Z,4.61
2023-01-04T07:31:42.213Z,4.78
2023-01-04T07:34:08.900Z,4.80
2023-01-04T07:36:35.474Z,4.66
2023-01-04T07:39:03.021Z,4.68
2023-01-04T07:41:29.595Z,4.60
2023-01-04T07:43:56.178Z,4.59
2023-01-04T07:46:22.974Z,4.61
2023-01-04T07:48:49.583Z,4.62
2023-01-04T07:51:16.181Z,4.65
2023-01-04T07:53:42.757Z,4.67
2023-01-04T07:56:12.455Z,4.55
2023-01-04T07:58:43.514Z,4.60
2023-01-04T08:01:12.807Z,4.58
2023-01-04T08:03:39.745Z,4.53
2023-01-04T08:06:08.404Z,4.47
2023-01-04T08:08:35.034Z,4.52
2023-01-04T08:11:06.935Z,4.49
2023-01-04T08:13:33.982Z,4.50
2023-01-04T08:16:01.237Z,4.54
2023-01-04T08:18:28.021Z,4.74
2023-01-04T08:21:14.851Z,4.88
2023-01-04T08:23:41.407Z,5.06
2023-01-04T08:26:11.925Z,5.15
2023-01-04T08:28:38.795Z,5.32
2023-01-04T08:31:11.912Z,5.42
2023-01-04T08:33:39.591Z,5.48
2023-01-04T08:36:22.587Z,5.52
2023-01-04T08:39:04.926Z,5.49
2023-01-04T08:44:22.713Z,5.47
2023-01-04T08:46:50.731Z,5.41
2023-01-04T08:49:18.078Z,5.39
2023-01-04T08:51:45.416Z,5.45
2023-01-04T08:54:12.298Z,5.46
2023-01-04T08:56:38.930Z,5.48
2023-01-04T08:59:06.321Z,5.55
2023-01-04T09:01:34.435Z,6.46
2023-01-04T09:04:01.213Z,7.75
2023-01-04T09:06:28.839Z,9.18
2023-01-04T09:08:57.326Z,10.45
2023-01-04T09:11:25.288Z,11.68
2023-01-04T09:14:07.204Z,12.90
2023-01-04T09:16:35.668Z,13.23
2023-01-04T09:19:02.416Z,14.34
2023-01-04T09:21:29.161Z,15.31
2023-01-04T09:23:57.447Z,15.63
2023-01-04T09:26:24.529Z,16.18
2023-01-04T09:28:55.497Z,17.19
2023-01-04T09:31:24.811Z,17.95
2023-01-04T09:36:38.793Z,19.01
2023-01-04T09:39:05.568Z,19.23
2023-01-04T09:41:38.124Z,19.97
2023-01-04T09:44:22.921Z,19.76
2023-01-04T09:47:03.167Z,19.74
2023-01-04T09:49:44.159Z,20.11
2023-01-04T09:52:10.717Z,19.97
2023-01-04T09:55:37.960Z,19.67
2023-01-04T09:58:07.035Z,20.78
2023-01-04T10:00:51.539Z,21.24
2023-01-04T10:03:30.067Z,20.98
2023-01-04T10:05:57.000Z,20.97
2023-01-04T10:08:24.264Z,20.88
2023-01-04T10:11:26.658Z,19.72
2023-01-04T10:14:29.199Z,20.42
2023-01-04T10:17:13.751Z,20.41
2023-01-04T10:21:18.717Z,21.11
2023-01-04T10:23:13.089Z,21.09
2023-01-04T10:25:56.801Z,20.86
2023-01-04T10:28:42.601Z,20.83
2023-01-04T10:31:39.338Z,21.03
2023-01-04T10:34:18.935Z,21.30
2023-01-04T10:36:48.436Z,20.88
2023-01-04T10:39:17.658Z,19.63
2023-01-04T10:41:53.568Z,19.74
2023-01-04T10:44:44.506Z,19.97
2023-01-04T10:47:29.751Z,20.75
2023-01-04T10:50:08.561Z,21.32
2023-01-04T10:52:47.462Z,22.22
2023-01-04T10:55:27.260Z,22.26
2023-01-04T10:58:02.621Z,22.50
2023-01-04T11:00:40.596Z,23.62
2023-01-04T11:03:15.297Z,23.79
2023-01-04T11:05:53.270Z,24.08
2023-01-04T11:08:28.573Z,23.93
2023-01-04T11:11:10.783Z,24.03
2023-01-04T11:13:38.714Z,23.59
2023-01-04T11:16:06.220Z,23.19
2023-01-04T11:18:36.424Z,22.87
2023-01-04T11:21:08.469Z,22.20
2023-01-04T11:23:35.108Z,21.30
2023-01-04T11:26:08.939Z,21.88
2023-01-04T11:28:58.906Z,22.65
2023-01-04T11:31:41.399Z,21.99
2023-01-04T11:34:07.883Z,20.59
2023-01-04T11:36:43.804Z,18.58
2023-01-04T11:39:21.968Z,15.83
2023-01-04T11:42:02.648Z,13.88
2023-01-04T11:44:32.334Z,13.10
2023-01-04T11:47:14.844Z,12.60
2023-01-04T11:49:41.450Z,12.24
2023-01-04T11:52:29.106Z,12.01
2023-01-04T11:54:55.668Z,13.25
2023-01-04T11:57:22.308Z,14.79
2023-01-04T12:00:17.564Z,17.09
2023-01-04T12:03:01.301Z,18.66
2023-01-04T12:05:32.158Z,20.13
2023-01-04T12:07:59.451Z,20.75
2023-01-04T12:10:28.394Z,20.12
2023-01-04T12:12:56.414Z,21.29
2023-01-04T12:15:32.810Z,22.16
2023-01-04T12:18:09.714Z,22.22
2023-01-04T12:20:36.646Z,23.16
2023-01-04T12:23:03.255Z,21.76
2023-01-04T12:25:35.285Z,23.02
2023-01-04T12:28:02.024Z,24.03
2023-01-04T12:33:30.240Z,24.05
2023-01-04T12:36:05.026Z,23.96
2023-01-04T12:38:56.310Z,24.02
2023-01-04T12:42:01.129Z,21.97
2023-01-04T12:44:36.880Z,23.47
2023-01-04T12:47:37.493Z,24.00
2023-01-04T12:50:12.897Z,22.80
2023-01-04T12:53:02.270Z,24.01
2023-01-04T12:55:33.115Z,23.71
2023-01-04T12:58:01.441Z,23.35
2023-01-04T13:00:52.586Z,23.33
2023-01-04T13:03:20.698Z,22.71
2023-01-04T13:06:00.670Z,21.43
2023-01-04T13:08:33.111Z,21.64
2023-01-04T13:11:01.631Z,21.47
2023-01-04T13:13:42.703Z,22.08
2023-01-04T13:16:28.706Z,22.84
2023-01-04T13:19:03.642Z,23.05
2023-01-04T13:21:39.807Z,23.13
2023-01-04T13:24:34.283Z,23.33
2023-01-04T13:27:17.232Z,22.82
2023-01-04T13:29:45.464Z,22.05
2023-01-04T13:32:19.309Z,22.61
2023-01-04T13:35:13.336Z,22.65
2023-01-04T13:37:44.152Z,22.86
2023-01-04T13:40:27.965Z,22.47
2023-01-04T13:43:33.959Z,21.91
2023-01-04T13:46:12.995Z,20.61
2023-01-04T13:48:43.312Z,20.73
2023-01-04T13:51:37.740Z,20.58
2023-01-04T13:54:16.760Z,20.66
2023-01-04T13:56:55.156Z,20.38
2023-01-04T13:59:22.596Z,19.25
2023-01-04T14:01:50.156Z,17.54
2023-01-04T14:04:26.275Z,15.84
2023-01-04T14:06:55.245Z,14.47
2023-01-04T14:09:25.854Z,13.52
2023-01-04T14:12:09.393Z,12.93
2023-01-04T14:14:57.982Z,12.28
2023-01-04T14:17:30.292Z,11.79
2023-01-04T14:20:05.249Z,11.45
2023-01-04T14:22:47.130Z,11.03
2023-01-04T14:25:35.763Z,10.80
2023-01-04T14:28:24.867Z,10.59
2023-01-04T14:30:59.520Z,10.38
2023-01-04T14:33:38.885Z,10.26
2023-01-04T14:36:19.639Z,10.08
2023-01-04T14:38:59.953Z,9.85
2023-01-04T14:41:32.778Z,9.62
2023-01-04T14:43:59.259Z,9.43
2023-01-04T14:46:27.267Z,9.21
2023-01-04T14:48:54.497Z,9.03
2023-01-04T14:51:32.791Z,8.84
2023-01-04T14:53:59.353Z,8.67
2023-01-04T14:56:26.099Z,8.50
2023-01-04T14:58:52.654Z,8.29
2023-01-04T15:01:19.329Z,8.12
2023-01-04T15:03:46.081Z,7.97
2023-01-04T15:06:12.815Z,7.84
2023-01-04T15:08:39.405Z,7.71
2023-01-04T15:11:06.141Z,7.53
2023-01-04T15:13:39.028Z,7.34
2023-01-04T15:16:07.572Z,7.18
2023-01-04T15:18:34.309Z,7.08
2023-01-04T15:21:02.167Z,6.93
2023-01-04T15:23:28.772Z,6.79
2023-01-04T15:25:55.549Z,6.69
2023-01-04T15:28:24.200Z,6.64
2023-01-04T15:30:50.912Z,6.58
2023-01-04T15:33:17.656Z,6.54
2023-01-04T15:35:44.514Z,6.46
2023-01-04T15:38:16.133Z,6.32
2023-01-04T15:40:44.750Z,6.21
2023-01-04T15:43:11.785Z,6.20
2023-01-04T15:45:39.610Z,6.13
2023-01-04T15:48:07.973Z,6.02
2023-01-04T15:50:37.421Z,5.93
2023-01-04T15:53:05.491Z,5.83
2023-01-04T15:55:36.255Z,5.73
2023-01-04T15:58:04.698Z,5.58
2023-01-04T16:00:32.057Z,5.52
2023-01-04T16:02:58.809Z,5.40
2023-01-04T16:05:25.550Z,5.31
2023-01-04T16:07:52.157Z,5.30
2023-01-04T16:10:19.085Z,5.25
2023-01-04T16:12:49.876Z,5.22
2023-01-04T16:15:21.936Z,5.22
2023-01-04T16:17:48.778Z,5.23
2023-01-04T16:20:16.864Z,5.27
2023-01-04T16:22:43.440Z,5.28
2023-01-04T16:25:12.132Z,5.35
2023-01-04T16:27:39.519Z,5.40
2023-01-04T16:30:10.768Z,5.41
2023-01-04T16:32:40.304Z,5.37
2023-01-04T16:35:07.152Z,5.40
2023-01-04T16:37:33.836Z,5.37
2023-01-04T16:40:08.921Z,5.30
2023-01-04T16:42:37.826Z,5.30
2023-01-04T16:45:05.921Z,5.28
2023-01-04T16:47:43.454Z,5.31
2023-01-04T16:50:12.326Z,5.33
2023-01-04T16:52:39.971Z,5.40
2023-01-04T16:55:07.346Z,5.43
2023-01-04T16:57:34.044Z,5.46
2023-01-04T17:00:00.648Z,5.48
2023-01-04T17:02:27.280Z,5.53
2023-01-04T17:04:59.550Z,5.59
2023-01-04T17:07:32.787Z,5.58
2023-01-04T17:10:00.856Z,5.59
2023-01-04T17:15:41.781Z,5.64
2023-01-04T17:18:00.763Z,5.64
2023-01-04T17:20:27.450Z,5.67
2023-01-04T17:22:54.043Z,5.69
2023-01-04T17:25:20.627Z,5.75
2023-01-04T17:27:47.215Z,5.80
2023-01-04T17:30:13.960Z,5.77
2023-01-04T17:32:40.564Z,5.81
2023-01-04T17:35:07.365Z,5.83
2023-01-04T17:37:33.944Z,5.82
2023-01-04T17:40:00.514Z,5.80
2023-01-04T17:42:27.136Z,5.82
2023-01-04T17:44:53.828Z,5.78
2023-01-04T17:47:20.489Z,5.77
2023-01-04T17:49:47.161Z,5.83
2023-01-04T17:52:21.025Z,5.83
2023-01-04T17:54:51.153Z,5.84
2023-01-04T17:57:17.725Z,5.82
2023-01-04T17:59:44.325Z,5.81
2023-01-04T18:02:11.033Z,5.69
2023-01-04T18:04:37.663Z,5.69
2023-01-04T18:07:04.260Z,5.68
2023-01-04T18:09:30.854Z,5.71
2023-01-04T18:11:57.454Z,5.69
2023-01-04T18:14:24.396Z,5.66
2023-01-04T18:16:57.884Z,5.63
2023-01-04T18:19:27.520Z,5.62
2023-01-04T18:21:54.630Z,5.53
2023-01-04T18:24:38.166Z,5.54
2023-01-04T18:27:24.393Z,5.51
2023-01-04T18:29:53.032Z,5.51
2023-01-04T18:32:20.615Z,5.48
2023-01-04T18:34:47.404Z,5.48
2023-01-04T18:37:15.769Z,5.50
2023-01-04T18:39:42.793Z,5.51
2023-01-04T18:42:09.440Z,5.52
2023-01-04T18:44:37.742Z,5.55
2023-01-04T18:47:06.444Z,5.55
2023-01-04T18:49:33.090Z,5.51
2023-01-04T18:51:59.709Z,5.53
2023-01-04T18:54:26.300Z,5.47
2023-01-04T18:56:58.955Z,5.52
2023-01-04T18:59:30.827Z,5.51
2023-01-04T19:02:01.687Z,5.53
2023-01-04T19:04:34.111Z,5.48
2023-01-04T19:07:01.260Z,5.48
2023-01-04T19:09:27.896Z,5.46
2023-01-04T19:11:54.473Z,5.42
2023-01-04T19:14:21.228Z,5.42
2023-01-04T19:16:47.931Z,5.41
2023-01-04T19:19:14.688Z,5.38
2023-01-04T19:21:41.399Z,5.37
2023-01-04T19:24:08.115Z,5.39
2023-01-04T19:26:34.683Z,5.38
2023-01-04T19:29:01.380Z,5.36
2023-01-04T19:31:28.171Z,5.37
2023-01-04T19:33:54.790Z,5.38
2023-01-04T19:36:21.487Z,5.38
2023-01-04T19:38:48.193Z,5.37
2023-01-04T19:41:20.873Z,5.35
2023-01-04T19:43:47.648Z,5.31
2023-01-04T19:46:14.424Z,5.26
2023-01-04T19:48:41.698Z,5.30
2023-01-04T19:51:14.459Z,5.28
2023-01-04T19:53:42.817Z,5.29
2023-01-04T19:56:10.239Z,5.30
2023-01-04T19:58:38.267Z,5.26
2023-01-04T20:01:05.448Z,5.24
2023-01-04T20:03:32.531Z,5.20
2023-01-04T20:06:06.543Z,5.13
2023-01-04T20:08:33.513Z,5.12
2023-01-04T20:11:01.741Z,5.12
2023-01-04T20:13:29.900Z,5.08
2023-01-04T20:15:56.533Z,5.01
2023-01-04T20:18:26.157Z,4.98
2023-01-04T20:20:53.467Z,4.88
2023-01-04T20:23:21.863Z,4.85
2023-01-04T20:25:50.709Z,4.83
2023-01-04T20:28:20.082Z,4.85
2023-01-04T20:30:47.492Z,4.80
2023-01-04T20:33:14.624Z,4.81
2023-01-04T20:35:44.392Z,4.85
2023-01-04T20:38:11.824Z,4.84
2023-01-04T20:40:39.168Z,4.76
2023-01-04T20:43:24.308Z,4.76
2023-01-04T20:45:50.962Z,4.71
2023-01-04T20:48:17.698Z,4.68
2023-01-04T20:50:44.874Z,4.64
2023-01-04T20:53:13.255Z,4.59
2023-01-04T20:55:41.697Z,4.54
2023-01-04T20:58:10.001Z,4.49
2023-01-04T21:00:37.299Z,4.42
2023-01-04T21:03:04.795Z,4.27
2023-01-04T21:05:36.675Z,4.23
2023-01-04T21:08:03.863Z,4.25
2023-01-04T21:10:30.465Z,4.28
2023-01-04T21:12:57.043Z,4.28
2023-01-04T21:15:23.856Z,4.27
2023-01-04T21:17:50.580Z,4.25
2023-01-04T21:20:17.267Z,4.16
2023-01-04T21:22:44.227Z,4.15
2023-01-04T21:25:10.822Z,4.18
2023-01-04T21:27:37.411Z,4.15
2023-01-04T21:30:04.947Z,4.18
2023-01-04T21:32:31.562Z,4.14
2023-01-04T21:34:58.152Z,4.16
2023-01-04T21:37:25.246Z,4.06
2023-01-04T21:39:51.909Z,4.04
2023-01-04T21:42:18.468Z,4.09
2023-01-04T21:44:45.094Z,3.99
2023-01-04T21:47:11.667Z,4.05
2023-01-04T21:49:43.607Z,3.92
2023-01-04T21:52:11.021Z,3.98
2023-01-04T21:54:38.265Z,3.92
2023-01-04T21:57:07.884Z,3.96
2023-01-04T21:59:36.311Z,4.01
2023-01-04T22:02:03.363Z,3.97
2023-01-04T22:04:30.864Z,3.98
2023-01-04T22:06:58.212Z,3.92
2023-01-04T22:09:25.408Z,3.89
2023-01-04T22:11:52.084Z,3.93
2023-01-04T22:14:18.787Z,3.93
2023-01-04T22:16:45.655Z,3.95
2023-01-04T22:19:13.703Z,3.95
2023-01-04T22:21:41.643Z,3.95
2023-01-04T22:24:11.952Z,3.97
2023-01-04T22:26:39.490Z,4.05
2023-01-04T22:29:06.108Z,3.98
2023-01-04T22:31:33.145Z,3.95
2023-01-04T22:34:00.020Z,3.94
2023-01-04T22:36:27.224Z,3.94
2023-01-04T22:38:55.865Z,3.98
2023-01-04T22:41:25.494Z,3.96
2023-01-04T22:44:00.865Z,3.98
2023-01-04T22:46:28.887Z,3.91
2023-01-04T22:48:56.149Z,4.01
2023-01-04T22:51:24.277Z,3.98
2023-01-04T22:53:55.298Z,3.91
2023-01-04T22:56:23.184Z,3.89
2023-01-04T22:58:54.205Z,3.90
2023-01-04T23:01:24.197Z,3.87
2023-01-04T23:03:51.991Z,3.83
2023-01-04T23:06:18.845Z,3.95
2023-01-04T23:08:45.411Z,3.89
2023-01-04T23:11:15.342Z,3.82
2023-01-04T23:13:42.770Z,3.76
2023-01-04T23:16:12.577Z,3.78
2023-01-04T23:18:39.366Z,3.74
2023-01-04T23:21:06.684Z,3.69
2023-01-04T23:23:33.733Z,3.70
2023-01-04T23:26:13.773Z,3.70
2023-01-04T23:28:40.879Z,3.67
2023-01-04T23:31:10.747Z,3.69
2023-01-04T23:33:37.982Z,3.71
2023-01-04T23:36:07.418Z,3.64
2023-01-04T23:38:34.358Z,3.65
2023-01-04T23:41:00.976Z,3.65
2023-01-04T23:43:27.822Z,3.68
2023-01-04T23:45:54.620Z,3.71
2023-01-04T23:48:21.198Z,3.61
2023-01-04T23:50:57.751Z,3.61
2023-01-04T23:53:24.751Z,3.59
2023-01-04T23:55:56.807Z,3.54
2023-01-04T23:58:25.266Z,3.59
